Aviation Digital Data Service (ADDS)

Output produced by METARs form (0349 UTC 26 June 2019)
found at http://www.aviationweather.gov/metar/data/
 
Forecast for: LEZL (SEVILLA (CIV/MIL, ES)
Text: TAF LEZL 260200Z 2603/2703 21007KT CAVOK TX34/2615Z TN19/2607Z
Forecast period: 0300 UTC 26 June 2019 to 0300 UTC 27 June 2019
Forecast type: FROM: standard forecast or significant change
Winds: from the SSW (210 degrees) at 8 MPH (7 knots; 3.6 m/s)
Visibility: 6 or more miles 10+ km)
Ceiling: unknown
Clouds: missing
Weather: no significant weather forecast for this period